Austin, TX (78772)

4:00 PM CDT on August 30, 2015 (GMT -0500)
Dawson - Gumbo Gulch | | Change Station
CLOSE
Current Station
Personal Weather Station
Location: Austin, TX
Elevation: 614 ft
Nearby Weather Stations

Elev 614 ft 30.23 °N, 97.76 °W | Updated 9 seconds ago

Overcast
Overcast
91.0 °F
Feels Like 93 °F
N
0.0
Wind Variable Wind from SE
Gusts 5.0 mph

Today
High -- | Low -- °F
--% Chance of Precip.
Yesterday
High -- | Low -- °F
Precip. -- in
7:06 AM 7:56 PM
Full, 98% visible
Pressure 29.92 in
Visibility 10.0 miles
Clouds Few 6500 ft
Mostly Cloudy 12000 ft
Mostly Cloudy 15000 ft
Mostly Cloudy 25000 ft
Heat Index 93 °F
Dew Point 65 °F
Humidity 42%
Rainfall 0.00 in
Snow Depth Not available.
UV 4 out of 12
Pollen 6.30 out of 12
Air Quality Not available.
Flu Activity Not available.
METAR KAUS 302053Z 19007KT 10SM FEW065 BKN120 BKN150 BKN250 33/17 A2996 RMK AO2 SLP132 CB DSNT NW MOV S T03330167 58021
Pressure 29.92 in
Visibility 10.0 miles
Clouds Few 6500 ft
Mostly Cloudy 12000 ft
Mostly Cloudy 15000 ft
Mostly Cloudy 25000 ft
Heat Index 93 °F
Dew Point 65 °F
Humidity 42%
Rainfall 0.00 in
Snow Depth Not available.
UV 4 out of 12
Pollen 6.30 out of 12
Air Quality Not available.
Flu Activity Not available.
METAR KAUS 302053Z 19007KT 10SM FEW065 BKN120 BKN150 BKN250 33/17 A2996 RMK AO2 SLP132 CB DSNT NW MOV S T03330167 58021
Nowcast | as of 3:29 PM CDT on August 30, 2015

Isolated showers and thunderstorms will be possible across the region through sunset. Rainfall amounts will generally be 1/4 inch or less with a few locations getting up to one inch. Best chances will be along and to the west of Interstate 35. East of Interstate 35 a few light showers are possible. Rainfall amounts will be less than one tenth of an inch.

×

10-Day Weather Forecast

×

Almanac

Astronomy

Aug. 30, 2015 Rise Set
Actual Time
Civil Twilight
Nautical Twilight
Astronomical Twilight
Moon
Length of Visible Light
Length of Day
Tomorrow will be .
, % of the Moon is Illuminated

Today's Extremes

State Highs State Lows

Community

WunderPhotos

Upload Photos

1,851,060 photos uploaded!

WunderBlogs® & News

Nearby

Air Quality

  Air Quality AQ Index Pollutant
Not available.

Snow Depth

Station Depth Elevation

Earthquake Activity

City Distance Mag. Time & Date
Minimum magnitude displayed is 2.5.

Coastal Water Temperatures

Place Temperature

Stations

Nearby Weather Stations

Station Location Temp. Windchill Dew Point Humidity Wind Precip. Elev Updated Type